Time;durP1;ratioP1;P1;durP2;ratioP2;P2;SDS_P1;SDS_P2;PMS_P1;PMS_P2;Temp;Humidity;BMP_temperature;BMP_pressure;BME280_temperature;BME280_humidity;BME280_pressure;Samples;Min_cycle;Max_cycle;Signal;HPM_P1;HPM_P2
2023/09/22 00:01:55;;;;;;;2.30;0.80;;;;;;;16.34;100.00;96833.16;5053555;28;20212;-73
2023/09/22 00:04:21;;;;;;;2.57;1.20;;;;;;;16.36;100.00;96827.47;5053132;28;20292;-73
2023/09/22 00:06:48;;;;;;;3.37;1.30;;;;;;;16.38;100.00;96823.44;5053407;28;20199;-73
2023/09/22 00:09:14;;;;;;;4.60;1.20;;;;;;;16.23;100.00;96826.28;5053460;28;20228;-73
2023/09/22 00:11:40;;;;;;;2.70;1.03;;;;;;;16.32;100.00;96827.25;5053428;28;20216;-73
2023/09/22 00:14:07;;;;;;;3.10;1.10;;;;;;;16.35;100.00;96829.38;5052972;28;20672;-73
2023/09/22 00:16:34;;;;;;;3.40;0.70;;;;;;;16.39;100.00;96834.97;5053307;28;20233;-73
2023/09/22 00:19:05;;;;;;;1.70;0.90;;;;;;;16.39;100.00;96841.13;5053254;28;20303;-73
2023/09/22 00:21:32;;;;;;;1.90;0.90;;;;;;;16.23;100.00;96842.38;5053066;28;20551;-73
2023/09/22 00:23:59;;;;;;;0.80;0.80;;;;;;;16.24;100.00;96835.91;5053361;28;20205;-73
2023/09/22 00:26:26;;;;;;;3.33;1.07;;;;;;;16.20;100.00;96831.41;5052981;28;20206;-73
2023/09/22 00:28:52;;;;;;;1.83;0.80;;;;;;;16.19;100.00;96827.94;5053117;28;20225;-73
2023/09/22 00:31:18;;;;;;;1.30;1.00;;;;;;;16.17;100.00;96822.06;5052952;28;20790;-73
2023/09/22 00:33:45;;;;;;;1.73;0.83;;;;;;;16.03;100.00;96806.91;5052925;28;20206;-74
2023/09/22 00:36:13;;;;;;;1.60;0.67;;;;;;;15.90;100.00;96800.34;5053245;28;20247;-74
2023/09/22 00:38:40;;;;;;;2.23;0.93;;;;;;;16.03;100.00;96794.31;5053345;28;20229;-74
2023/09/22 00:41:06;;;;;;;2.87;1.10;;;;;;;16.03;100.00;96794.31;5056897;28;20320;-74
2023/09/22 00:43:33;;;;;;;1.47;0.90;;;;;;;15.90;100.00;96794.97;5056762;28;20217;-74
2023/09/22 00:46:00;;;;;;;5.70;1.37;;;;;;;15.76;100.00;96810.13;5056779;28;20288;-74
2023/09/22 00:48:32;;;;;;;2.10;1.07;;;;;;;15.85;100.00;96821.84;5056980;28;20225;-74
2023/09/22 00:51:01;;;;;;;2.17;0.97;;;;;;;15.72;100.00;96843.91;5056674;28;20206;-74
2023/09/22 00:53:29;;;;;;;1.63;1.00;;;;;;;15.69;100.00;96846.38;5056843;28;20205;-74
2023/09/22 00:55:56;;;;;;;1.73;1.10;;;;;;;15.73;100.00;96847.38;5056849;28;20228;-74
2023/09/22 00:58:23;;;;;;;1.67;0.90;;;;;;;15.78;100.00;96848.13;5056381;28;20243;-74
2023/09/22 01:00:52;;;;;;;2.13;1.00;;;;;;;15.59;100.00;96851.78;5056520;28;20574;-74
2023/09/22 01:03:19;;;;;;;1.10;1.00;;;;;;;15.66;100.00;96863.81;5056790;28;20235;-74
2023/09/22 01:05:46;;;;;;;2.53;1.10;;;;;;;15.74;100.00;96849.78;5056754;28;20201;-74
2023/09/22 01:08:13;;;;;;;2.20;1.00;;;;;;;15.75;100.00;96858.63;5056661;28;20244;-74
2023/09/22 01:10:43;;;;;;;2.17;0.90;;;;;;;15.56;100.00;96855.81;5056626;28;20210;-74
2023/09/22 01:13:10;;;;;;;1.10;1.00;;;;;;;15.57;100.00;96846.72;5056559;28;20569;-74
2023/09/22 01:15:40;;;;;;;1.00;0.80;;;;;;;15.60;100.00;96830.06;5056488;28;20221;-74
2023/09/22 01:18:07;;;;;;;1.00;0.90;;;;;;;15.65;100.00;96824.66;5056435;28;20229;-74
2023/09/22 01:20:42;;;;;;;1.93;1.10;;;;;;;15.62;100.00;96816.41;5056291;28;20216;-74
2023/09/22 01:23:09;;;;;;;3.17;1.10;;;;;;;15.55;100.00;96818.59;5056306;28;20284;-74
2023/09/22 01:25:36;;;;;;;1.53;0.90;;;;;;;15.37;100.00;96820.06;5056025;28;20201;-74
2023/09/22 01:28:03;;;;;;;1.30;0.90;;;;;;;15.46;100.00;96809.53;5055906;28;20722;-74
2023/09/22 01:30:32;;;;;;;1.20;1.00;;;;;;;15.46;100.00;96805.00;5056267;28;20209;-74
2023/09/22 01:33:02;;;;;;;1.60;0.90;;;;;;;15.31;100.00;96797.06;5056206;28;20254;-74
2023/09/22 01:35:31;;;;;;;1.10;1.00;;;;;;;15.36;100.00;96799.72;5056121;28;20221;-74
2023/09/22 01:38:09;;;;;;;2.57;1.10;;;;;;;15.32;100.00;96825.44;5055727;28;20775;-74
2023/09/22 01:40:36;;;;;;;4.30;1.03;;;;;;;15.32;100.00;96838.81;5055971;28;20200;-74
2023/09/22 01:43:02;;;;;;;2.33;1.07;;;;;;;15.29;100.00;96835.91;5055978;28;20201;-74
2023/09/22 01:45:29;;;;;;;2.70;0.90;;;;;;;15.38;100.00;96834.28;5055654;28;20207;-74
2023/09/22 01:47:55;;;;;;;1.27;0.90;;;;;;;15.19;100.00;96835.97;5055851;28;20225;-74
2023/09/22 01:50:21;;;;;;;1.70;0.90;;;;;;;15.12;100.00;96836.28;5055812;28;20206;-74
2023/09/22 01:52:48;;;;;;;0.80;0.73;;;;;;;15.15;100.00;96835.69;5056897;28;20213;-74
2023/09/22 01:55:15;;;;;;;1.13;0.83;;;;;;;15.22;100.00;96832.72;5055328;28;20221;-74
2023/09/22 01:57:42;;;;;;;1.37;1.00;;;;;;;15.24;100.00;96830.59;5055215;28;20751;-74
2023/09/22 02:00:10;;;;;;;1.27;0.90;;;;;;;15.21;100.00;96818.56;5055441;28;20630;-74
2023/09/22 02:02:42;;;;;;;2.33;1.00;;;;;;;15.17;100.00;96827.41;5055669;28;20288;-74
2023/09/22 02:05:09;;;;;;;1.80;1.00;;;;;;;15.17;100.00;96819.38;5055643;28;20212;-74
2023/09/22 02:07:35;;;;;;;2.23;1.20;;;;;;;15.19;100.00;96806.53;5055353;28;20332;-74
2023/09/22 02:10:02;;;;;;;1.80;0.90;;;;;;;15.11;100.00;96810.56;5055375;28;20212;-74
2023/09/22 02:12:28;;;;;;;2.43;1.10;;;;;;;15.01;100.00;96815.19;5055412;28;20213;-74
2023/09/22 02:14:54;;;;;;;1.93;1.00;;;;;;;15.01;100.00;96816.00;5055362;28;20212;-74
2023/09/22 02:17:21;;;;;;;1.17;1.03;;;;;;;15.01;100.00;96813.31;5055257;28;20236;-74
2023/09/22 02:19:47;;;;;;;1.03;0.80;;;;;;;15.12;100.00;96822.91;5055322;28;20618;-74
2023/09/22 02:22:14;;;;;;;2.23;0.93;;;;;;;15.09;100.00;96809.25;5055271;28;20296;-74
2023/09/22 02:24:41;;;;;;;1.97;1.00;;;;;;;15.09;100.00;96818.09;5054908;28;20726;-74
2023/09/22 02:27:07;;;;;;;1.03;1.00;;;;;;;14.96;100.00;96826.72;5055107;28;20212;-74
2023/09/22 02:29:34;;;;;;;2.40;1.10;;;;;;;14.93;100.00;96829.16;5054779;28;20213;-74
2023/09/22 02:32:00;;;;;;;1.67;1.00;;;;;;;14.92;100.00;96849.75;5055607;28;20259;-74
2023/09/22 02:34:27;;;;;;;2.20;1.30;;;;;;;14.87;100.00;96839.06;5055065;28;20205;-74
2023/09/22 02:36:53;;;;;;;2.67;1.30;;;;;;;14.95;100.00;96838.50;5054570;28;20718;-74
2023/09/22 02:39:19;;;;;;;2.57;0.83;;;;;;;14.98;100.00;96832.63;5054546;28;20225;-74
2023/09/22 02:41:46;;;;;;;2.20;1.00;;;;;;;14.98;100.00;96824.59;5054523;28;20639;-74
2023/09/22 02:44:13;;;;;;;0.90;0.70;;;;;;;14.90;100.00;96824.34;5054877;28;20287;-74
2023/09/22 02:46:39;;;;;;;1.17;1.07;;;;;;;15.05;100.00;96838.44;5054807;28;20259;-74
2023/09/22 02:49:06;;;;;;;1.57;1.20;;;;;;;14.99;100.00;96844.91;5054481;28;20711;-73
2023/09/22 02:51:33;;;;;;;1.23;0.97;;;;;;;14.91;100.00;96847.34;5054790;28;20205;-74
2023/09/22 02:54:00;;;;;;;1.07;0.97;;;;;;;14.99;100.00;96852.94;5054691;28;20247;-74
2023/09/22 02:56:28;;;;;;;1.77;1.13;;;;;;;14.98;100.00;96856.69;5054299;28;20264;-74
2023/09/22 02:58:56;;;;;;;1.90;0.87;;;;;;;14.96;100.00;96850.81;5054212;28;20243;-74
2023/09/22 03:01:24;;;;;;;0.93;0.93;;;;;;;14.97;100.00;96844.38;5054074;28;20205;-74
2023/09/22 03:03:50;;;;;;;2.47;1.10;;;;;;;15.02;100.00;96833.63;5054218;28;20209;-74
2023/09/22 03:06:18;;;;;;;2.47;0.90;;;;;;;14.94;100.00;96825.41;5054347;28;20663;-74
2023/09/22 03:08:44;;;;;;;1.20;1.00;;;;;;;14.83;100.00;96816.63;5054325;28;20225;-74
2023/09/22 03:11:11;;;;;;;1.43;0.80;;;;;;;14.86;100.00;96816.06;5054348;28;20205;-74
2023/09/22 03:13:37;;;;;;;0.77;0.77;;;;;;;14.89;100.00;96810.19;5054277;28;20208;-74
2023/09/22 03:16:04;;;;;;;1.83;0.93;;;;;;;14.85;100.00;96819.84;5054132;28;20225;-74
2023/09/22 03:18:31;;;;;;;1.70;0.90;;;;;;;14.87;100.00;96831.03;5054228;28;20229;-74
2023/09/22 03:20:57;;;;;;;4.63;1.20;;;;;;;14.83;100.00;96834.56;5053764;28;20209;-74
2023/09/22 03:23:24;;;;;;;1.40;0.90;;;;;;;14.92;100.00;96840.94;5053759;28;20205;-74
2023/09/22 03:25:50;;;;;;;1.23;1.03;;;;;;;14.95;100.00;96846.53;5054128;28;20255;-74
2023/09/22 03:28:16;;;;;;;0.90;0.80;;;;;;;15.05;100.00;96845.66;5053665;28;20300;-74
2023/09/22 03:30:43;;;;;;;1.07;1.00;;;;;;;14.96;100.00;96844.66;5053860;28;20212;-74
2023/09/22 03:33:09;;;;;;;1.57;1.30;;;;;;;14.97;100.00;96839.03;5054320;28;20205;-74
2023/09/22 03:35:38;;;;;;;3.60;1.10;;;;;;;14.99;100.00;96839.56;5053487;28;20213;-74
2023/09/22 03:38:08;;;;;;;1.07;0.90;;;;;;;15.00;100.00;96859.06;5053430;28;20236;-74
2023/09/22 03:40:40;;;;;;;1.77;1.10;;;;;;;14.95;100.00;96877.84;5053706;28;20194;-74
2023/09/22 03:43:07;;;;;;;1.77;1.30;;;;;;;15.07;100.00;96887.13;5053423;28;20655;-74
2023/09/22 03:45:33;;;;;;;2.37;1.00;;;;;;;14.99;100.00;96900.31;5053461;28;20215;-74
2023/09/22 03:48:00;;;;;;;2.40;1.00;;;;;;;14.96;100.00;96898.16;5053577;28;20225;-74
2023/09/22 03:50:26;;;;;;;1.70;1.07;;;;;;;15.09;100.00;96895.72;5053656;28;20212;-74
2023/09/22 03:52:53;;;;;;;3.13;1.07;;;;;;;15.06;100.00;96914.97;5053325;28;20790;-74
2023/09/22 03:55:21;;;;;;;2.23;0.90;;;;;;;15.15;100.00;96905.31;5052919;28;20668;-74
2023/09/22 03:57:47;;;;;;;1.10;1.00;;;;;;;15.13;100.00;96901.31;5053146;28;20232;-74
2023/09/22 04:00:18;;;;;;;3.80;1.20;;;;;;;15.23;100.00;96891.34;5053466;28;20197;-74
2023/09/22 04:02:46;;;;;;;4.43;1.50;;;;;;;15.25;100.00;96891.09;5053400;28;20201;-74
2023/09/22 04:05:13;;;;;;;1.20;1.10;;;;;;;15.24;100.00;96882.25;5053368;28;20232;-74
2023/09/22 04:07:39;;;;;;;0.77;0.77;;;;;;;15.19;100.00;96868.09;5052962;28;20587;-74
2023/09/22 04:10:08;;;;;;;0.90;0.90;;;;;;;15.27;100.00;96852.25;5053341;28;20212;-74
2023/09/22 04:12:35;;;;;;;1.70;0.97;;;;;;;15.22;100.00;96852.28;5053447;28;20658;-74
2023/09/22 04:15:05;;;;;;;1.77;0.70;;;;;;;15.20;100.00;96851.72;5052126;28;20672;-74
2023/09/22 04:17:32;;;;;;;0.80;0.80;;;;;;;15.24;100.00;96844.75;5052848;28;20260;-74
2023/09/22 04:19:59;;;;;;;0.80;0.80;;;;;;;15.20;100.00;96833.00;5053008;28;20212;-74
2023/09/22 04:22:26;;;;;;;1.83;1.00;;;;;;;15.18;100.00;96843.19;5053056;28;20209;-74
2023/09/22 04:25:00;;;;;;;0.90;0.90;;;;;;;15.21;100.00;96855.22;5052735;28;20212;-74
2023/09/22 04:27:32;;;;;;;1.80;1.10;;;;;;;15.18;100.00;96856.59;5053030;28;20279;-74
2023/09/22 04:30:00;;;;;;;5.40;1.20;;;;;;;15.24;100.00;96849.31;5052919;28;20545;-74
2023/09/22 04:32:33;;;;;;;1.30;1.00;;;;;;;15.12;100.00;96863.06;5052998;28;20209;-74
2023/09/22 04:35:02;;;;;;;2.20;1.00;;;;;;;15.19;100.00;96868.09;5052943;28;20194;-74
2023/09/22 04:37:29;;;;;;;1.53;0.93;;;;;;;15.13;100.00;96864.66;5052804;28;20308;-74
2023/09/22 04:39:55;;;;;;;2.83;0.97;;;;;;;15.13;100.00;96870.00;5052948;28;20296;-74
2023/09/22 04:42:23;;;;;;;0.90;0.90;;;;;;;15.20;100.00;96869.69;5052883;28;20229;-74
2023/09/22 04:44:52;;;;;;;1.90;1.07;;;;;;;15.22;100.00;96862.16;5052209;28;20559;-74
2023/09/22 04:47:19;;;;;;;2.13;0.93;;;;;;;15.14;100.00;96863.56;5052741;28;20229;-74
2023/09/22 04:49:45;;;;;;;1.27;0.90;;;;;;;15.28;100.00;96872.56;5052981;28;20213;-74
2023/09/22 04:52:12;;;;;;;1.77;1.10;;;;;;;15.29;100.00;96865.34;5052684;28;20208;-74
2023/09/22 04:54:39;;;;;;;1.93;1.20;;;;;;;15.27;100.00;96867.50;5052935;28;20391;-74
2023/09/22 04:57:06;;;;;;;2.87;1.23;;;;;;;15.23;100.00;96858.41;5052312;28;20223;-74
2023/09/22 04:59:32;;;;;;;1.77;1.00;;;;;;;15.31;100.00;96857.84;5052834;28;20217;-74
2023/09/22 05:01:59;;;;;;;1.80;0.77;;;;;;;15.12;100.00;96870.25;5052608;28;20669;-74
2023/09/22 05:04:28;;;;;;;1.10;0.93;;;;;;;15.19;100.00;96858.16;5052514;28;20212;-74
2023/09/22 05:06:56;;;;;;;3.20;1.00;;;;;;;15.04;100.00;96858.25;5052651;28;20296;-74
2023/09/22 05:09:22;;;;;;;0.90;0.90;;;;;;;15.13;100.00;96853.94;5052798;28;20202;-74
2023/09/22 05:11:49;;;;;;;1.00;0.90;;;;;;;15.07;100.00;96860.38;5052634;28;20210;-74
2023/09/22 05:14:15;;;;;;;1.30;1.00;;;;;;;15.20;100.00;96857.09;5052671;28;20209;-74
2023/09/22 05:16:42;;;;;;;1.60;1.20;;;;;;;15.23;100.00;96872.59;5052412;28;20229;-74
2023/09/22 05:19:09;;;;;;;1.50;0.97;;;;;;;15.15;100.00;96875.84;5052305;28;20226;-74
2023/09/22 05:21:36;;;;;;;2.90;0.80;;;;;;;15.37;100.00;96878.19;5052455;28;20292;-74
2023/09/22 05:24:04;;;;;;;2.13;0.90;;;;;;;15.01;100.00;96874.09;5052318;28;20216;-74
2023/09/22 05:26:30;;;;;;;0.87;0.80;;;;;;;15.07;100.00;96886.34;5055516;28;20208;-74
2023/09/22 05:28:57;;;;;;;1.80;1.00;;;;;;;15.14;100.00;96882.28;5055775;28;20229;-74
2023/09/22 05:31:23;;;;;;;2.37;1.20;;;;;;;15.04;100.00;96890.38;5055827;28;20227;-74
2023/09/22 05:33:50;;;;;;;3.80;1.00;;;;;;;15.10;100.00;96902.66;5055537;28;20564;-74
2023/09/22 05:36:16;;;;;;;1.70;1.10;;;;;;;14.98;100.00;96910.22;5055768;28;20220;-74
2023/09/22 05:38:42;;;;;;;1.30;1.00;;;;;;;15.06;100.00;96927.59;5055701;28;20232;-74
2023/09/22 05:41:10;;;;;;;2.80;1.30;;;;;;;15.13;100.00;96936.09;5055084;28;20247;-74
2023/09/22 05:43:36;;;;;;;2.63;1.27;;;;;;;15.25;100.00;96942.72;5056079;28;20288;-74
2023/09/22 05:46:03;;;;;;;4.37;1.00;;;;;;;15.28;100.00;96939.53;5055288;28;20202;-74
2023/09/22 05:48:30;;;;;;;1.20;1.00;;;;;;;15.14;100.00;96935.84;5055172;28;20256;-74
2023/09/22 05:51:00;;;;;;;2.67;1.30;;;;;;;15.13;100.00;96934.25;5055724;28;20209;-74
2023/09/22 05:53:28;;;;;;;1.50;1.20;;;;;;;15.23;100.00;96936.88;5055455;28;20291;-74
2023/09/22 05:56:12;;;;;;;3.10;1.27;;;;;;;15.07;100.00;96945.25;5055922;28;20205;-74
2023/09/22 05:58:40;;;;;;;1.40;0.90;;;;;;;15.21;100.00;96939.03;5054862;28;20243;-75
2023/09/22 06:01:13;;;;;;;1.43;1.00;;;;;;;15.21;100.00;96951.59;5055093;28;20209;-74
2023/09/22 06:03:41;;;;;;;1.47;1.10;;;;;;;15.27;100.00;96966.56;5055295;28;20299;-74
2023/09/22 06:06:13;;;;;;;3.57;0.90;;;;;;;15.24;100.00;96957.19;5055222;28;20216;-74
2023/09/22 06:08:41;;;;;;;2.57;1.30;;;;;;;15.27;100.00;96959.34;5055209;28;20660;-74
2023/09/22 06:11:09;;;;;;;1.90;1.20;;;;;;;15.30;100.00;96958.81;5055021;28;20212;-74
2023/09/22 06:13:37;;;;;;;2.67;1.30;;;;;;;15.31;100.00;96959.59;5054600;28;20209;-74
2023/09/22 06:16:05;;;;;;;2.93;1.23;;;;;;;15.27;100.00;96967.38;5055196;28;20205;-74
2023/09/22 06:18:32;;;;;;;2.50;1.20;;;;;;;15.32;100.00;96980.75;5054677;28;20236;-74
2023/09/22 06:21:00;;;;;;;3.07;0.93;;;;;;;15.16;100.00;96991.78;5055073;28;20211;-74
2023/09/22 06:23:28;;;;;;;2.63;1.20;;;;;;;15.13;100.00;96989.66;5054881;28;20212;-74
2023/09/22 06:26:10;;;;;;;1.57;1.00;;;;;;;15.10;100.00;96982.19;5055047;28;20209;-74
2023/09/22 06:28:37;;;;;;;1.73;1.00;;;;;;;15.28;100.00;96990.38;5054495;28;20225;-74
2023/09/22 06:31:05;;;;;;;2.10;1.30;;;;;;;15.25;100.00;96990.94;5054849;28;20209;-74
2023/09/22 06:33:31;;;;;;;2.90;1.00;;;;;;;15.26;100.00;96997.09;5055004;28;20205;-74
2023/09/22 06:36:00;;;;;;;1.53;1.00;;;;;;;15.23;100.00;96998.44;5054481;28;20201;-74
2023/09/22 06:38:26;;;;;;;1.50;1.20;;;;;;;15.11;100.00;96981.09;5053583;28;20233;-74
2023/09/22 06:40:55;;;;;;;1.10;0.90;;;;;;;15.18;100.00;96974.38;5054737;28;20209;-74
2023/09/22 06:43:24;;;;;;;1.73;1.17;;;;;;;15.33;100.00;96981.56;5054546;28;20201;-74
2023/09/22 06:45:54;;;;;;;1.63;1.10;;;;;;;15.39;100.00;96986.66;5054535;28;20291;-74
2023/09/22 06:48:25;;;;;;;2.07;1.10;;;;;;;15.46;100.00;96986.31;5054618;28;20229;-74
2023/09/22 06:50:53;;;;;;;2.47;1.53;;;;;;;15.44;100.00;96986.63;5054386;28;20685;-74
2023/09/22 06:53:21;;;;;;;2.73;1.10;;;;;;;15.47;100.00;96991.41;5054529;28;20297;-74
2023/09/22 06:55:48;;;;;;;1.27;0.90;;;;;;;15.59;100.00;96988.41;5054432;28;20549;-74
2023/09/22 06:58:14;;;;;;;2.03;1.10;;;;;;;15.72;100.00;96980.56;5054099;28;20237;-74
2023/09/22 07:00:41;;;;;;;1.23;0.90;;;;;;;15.72;100.00;96971.72;5054308;28;20235;-74
2023/09/22 07:03:08;;;;;;;1.90;1.07;;;;;;;15.72;100.00;96964.50;5054036;28;20211;-74
2023/09/22 07:05:35;;;;;;;2.63;1.03;;;;;;;15.73;100.00;96955.38;5053950;28;20741;-74
2023/09/22 07:08:03;;;;;;;2.20;0.90;;;;;;;15.68;100.00;96968.81;5054019;28;20252;-73
2023/09/22 07:10:30;;;;;;;2.43;1.10;;;;;;;15.85;100.00;96974.59;5055000;28;20259;-73
2023/09/22 07:12:58;;;;;;;2.93;0.90;;;;;;;15.78;100.00;96970.63;5053902;28;20216;-73
2023/09/22 07:15:24;;;;;;;4.77;1.03;;;;;;;15.77;100.00;96971.69;5053950;28;20212;-73
2023/09/22 07:17:51;;;;;;;2.57;1.07;;;;;;;15.80;100.00;96953.19;5053386;28;20263;-73
2023/09/22 07:20:16;;;;;;;0.97;0.97;;;;;;;15.84;100.00;96962.25;5054037;28;20571;-74
2023/09/22 07:22:43;;;;;;;2.23;1.27;;;;;;;15.78;100.00;96957.22;5053562;28;20205;-73
2023/09/22 07:25:11;;;;;;;1.23;1.10;;;;;;;15.86;100.00;96964.66;5053500;28;20563;-73
2023/09/22 07:27:39;;;;;;;1.10;1.00;;;;;;;15.80;100.00;96971.13;5053766;28;20224;-73
2023/09/22 07:30:09;;;;;;;2.03;1.23;;;;;;;15.78;100.00;96984.81;5053727;28;20221;-73
2023/09/22 07:32:37;;;;;;;1.83;1.20;;;;;;;15.91;100.00;96984.19;5053547;28;20210;-74
2023/09/22 07:35:04;;;;;;;4.07;1.33;;;;;;;15.93;100.00;96986.59;5053491;28;20232;-74
2023/09/22 07:37:31;;;;;;;2.93;1.20;;;;;;;15.88;100.00;96987.41;5053516;28;20244;-74
2023/09/22 07:39:57;;;;;;;4.00;1.40;;;;;;;15.96;100.00;96992.19;5053375;28;20216;-74
2023/09/22 07:42:27;;;;;;;1.37;0.90;;;;;;;16.02;100.00;96996.44;5053494;28;20208;-74
2023/09/22 07:44:53;;;;;;;3.17;1.27;;;;;;;15.99;100.00;96999.69;5053077;28;20209;-74
2023/09/22 07:47:19;;;;;;;2.47;1.10;;;;;;;15.94;100.00;97004.28;5053372;28;20221;-74
2023/09/22 07:49:46;;;;;;;3.20;1.20;;;;;;;15.85;100.00;97009.44;5053492;28;20216;-74
2023/09/22 07:52:13;;;;;;;1.20;1.10;;;;;;;15.94;100.00;97020.38;5053448;28;20244;-74
2023/09/22 07:54:40;;;;;;;1.40;1.30;;;;;;;15.90;100.00;97016.63;5053349;28;20349;-74
2023/09/22 07:57:06;;;;;;;2.97;1.17;;;;;;;15.90;100.00;97022.81;5053198;28;20232;-74
2023/09/22 07:59:33;;;;;;;3.20;1.40;;;;;;;15.99;100.00;97013.09;5052915;28;20292;-74
2023/09/22 08:02:00;;;;;;;4.33;1.20;;;;;;;16.01;100.00;97016.28;5053254;28;20215;-74
2023/09/22 08:04:27;;;;;;;1.80;0.97;;;;;;;15.95;100.00;97017.41;5052882;28;20209;-74
2023/09/22 08:06:54;;;;;;;1.67;1.00;;;;;;;15.96;100.00;97032.41;5053329;28;20231;-74
2023/09/22 08:09:20;;;;;;;1.43;1.00;;;;;;;15.86;100.00;97035.16;5053044;28;20225;-74
2023/09/22 08:11:47;;;;;;;2.70;1.20;;;;;;;15.87;100.00;97034.06;5052960;28;20216;-74
2023/09/22 08:14:13;;;;;;;7.43;1.20;;;;;;;16.01;100.00;97028.91;5053129;28;20212;-74
2023/09/22 08:16:40;;;;;;;1.73;1.00;;;;;;;16.05;100.00;97024.59;5052853;28;20216;-74
2023/09/22 08:19:10;;;;;;;4.17;1.30;;;;;;;16.09;100.00;97029.09;5052833;28;20240;-74
2023/09/22 08:21:37;;;;;;;2.07;1.03;;;;;;;16.13;100.00;97024.78;5052852;28;20553;-73
2023/09/22 08:24:04;;;;;;;2.67;1.10;;;;;;;16.29;100.00;97026.28;5052815;28;20675;-74
2023/09/22 08:26:31;;;;;;;1.93;1.00;;;;;;;16.40;100.00;97040.44;5052928;28;20656;-73
2023/09/22 08:28:57;;;;;;;1.37;1.00;;;;;;;16.56;100.00;97033.91;5052897;28;20221;-74
2023/09/22 08:31:26;;;;;;;1.67;1.00;;;;;;;16.71;100.00;97039.13;5053104;28;20300;-73
2023/09/22 08:33:53;;;;;;;1.93;1.00;;;;;;;16.68;100.00;97043.16;5052664;28;20599;-74
2023/09/22 08:36:20;;;;;;;2.40;1.00;;;;;;;16.76;100.00;97045.25;5052709;28;20209;-74
2023/09/22 08:38:47;;;;;;;1.90;1.00;;;;;;;16.61;100.00;97041.91;5052762;28;20233;-74
2023/09/22 08:41:14;;;;;;;1.10;0.80;;;;;;;16.63;100.00;97045.91;5052900;28;20259;-74
2023/09/22 08:43:41;;;;;;;1.53;1.00;;;;;;;16.56;100.00;97056.16;5052595;28;20201;-74
2023/09/22 08:46:08;;;;;;;1.17;0.77;;;;;;;16.54;100.00;97052.94;5052757;28;20201;-74
2023/09/22 08:48:34;;;;;;;1.70;1.20;;;;;;;16.67;100.00;97052.31;5052342;28;20599;-74
2023/09/22 08:51:01;;;;;;;1.10;0.90;;;;;;;16.73;100.00;97051.19;5052612;28;20209;-74
2023/09/22 08:53:29;;;;;;;1.03;0.93;;;;;;;16.70;100.00;97056.31;5052866;28;20212;-74
2023/09/22 08:55:56;;;;;;;1.80;0.90;;;;;;;16.71;100.00;97042.63;5053334;28;20563;-74
2023/09/22 08:58:22;;;;;;;1.63;0.90;;;;;;;16.80;100.00;97048.97;5052253;28;20696;-74
2023/09/22 09:00:51;;;;;;;1.97;1.00;;;;;;;16.70;100.00;97051.72;5054704;28;20201;-74
2023/09/22 09:03:20;;;;;;;3.27;0.93;;;;;;;16.90;100.00;97053.44;5056538;28;20236;-74
2023/09/22 09:05:47;;;;;;;0.80;0.80;;;;;;;16.98;100.00;97060.88;5056465;28;20209;-74
2023/09/22 09:08:15;;;;;;;0.83;0.77;;;;;;;16.90;100.00;97059.63;5056451;28;20221;-74
2023/09/22 09:10:44;;;;;;;2.77;0.90;;;;;;;16.92;100.00;97060.13;5056289;28;20267;-74
2023/09/22 09:13:19;;;;;;;4.20;1.10;;;;;;;16.93;100.00;97061.75;5056969;28;20257;-74
2023/09/22 09:15:54;;;;;;;1.57;0.90;;;;;;;16.91;100.00;97063.91;5056047;28;20584;-74
2023/09/22 09:18:23;;;;;;;4.23;0.93;;;;;;;16.83;100.00;97069.09;5056185;28;20239;-74
2023/09/22 09:21:23;;;;;;;1.90;0.80;;;;;;;16.86;100.00;97063.94;5056172;28;20262;-74
2023/09/22 09:23:54;;;;;;;1.87;0.90;;;;;;;16.86;100.00;97063.94;5056081;28;20255;-74
2023/09/22 09:26:39;;;;;;;1.80;1.10;;;;;;;16.96;100.00;97066.53;5056027;28;20287;-74
2023/09/22 09:29:05;;;;;;;1.37;0.93;;;;;;;17.03;100.00;97068.88;5056153;28;20225;-74
2023/09/22 09:31:47;;;;;;;2.93;1.00;;;;;;;16.84;100.00;97087.59;5056053;28;20212;-74
2023/09/22 09:34:14;;;;;;;2.23;0.80;;;;;;;16.95;100.00;97093.66;5057264;28;20264;-74
2023/09/22 09:36:41;;;;;;;0.80;0.80;;;;;;;16.79;100.00;97076.88;5055581;28;20545;-74
2023/09/22 09:39:11;;;;;;;1.80;0.83;;;;;;;16.75;100.00;97081.22;5055777;28;20225;-74
2023/09/22 09:41:37;;;;;;;1.07;0.90;;;;;;;16.55;100.00;97091.34;5056080;28;20221;-74
2023/09/22 09:44:05;;;;;;;2.60;0.90;;;;;;;16.72;100.00;97089.84;5055732;28;20232;-74
2023/09/22 09:46:35;;;;;;;1.57;0.90;;;;;;;16.76;100.00;97074.78;5055484;28;20571;-74
2023/09/22 09:49:08;;;;;;;0.93;0.83;;;;;;;16.95;100.00;97054.19;5056259;28;20221;-74
2023/09/22 09:51:39;;;;;;;2.27;1.07;;;;;;;17.37;100.00;97056.97;5055183;28;20189;-74
2023/09/22 09:54:09;;;;;;;1.43;0.80;;;;;;;17.41;100.00;97060.72;5055699;28;20201;-73
2023/09/22 09:56:41;;;;;;;1.00;0.90;;;;;;;17.78;100.00;97068.09;5046487;28;20270;-73
2023/09/22 09:59:09;;;;;;;1.10;0.87;;;;;;;17.93;100.00;97076.75;5033184;28;20229;-73
2023/09/22 10:01:37;;;;;;;0.97;0.90;;;;;;;17.63;100.00;97076.31;5033003;28;20568;-73
2023/09/22 10:04:04;;;;;;;0.70;0.70;;;;;;;17.76;100.00;97073.75;5035222;28;20244;-73
2023/09/22 10:06:33;;;;;;;0.70;0.70;;;;;;;17.81;100.00;97072.88;5035563;28;20283;-73
2023/09/22 10:08:59;;;;;;;2.37;0.90;;;;;;;17.79;100.00;97065.13;5033808;28;20564;-73
2023/09/22 10:11:27;;;;;;;1.03;0.80;;;;;;;17.93;100.00;97066.00;5033930;28;20214;-73
2023/09/22 10:13:53;;;;;;;1.00;0.90;;;;;;;17.78;100.00;97058.13;5035276;28;20264;-73
2023/09/22 10:16:29;;;;;;;0.73;0.73;;;;;;;17.84;100.00;97043.53;5035131;28;20642;-73
2023/09/22 10:18:56;;;;;;;0.70;0.70;;;;;;;17.78;100.00;97041.19;5034963;28;20234;-73
2023/09/22 10:21:43;;;;;;;1.40;1.07;;;;;;;17.59;100.00;97032.28;5034733;28;20206;-73
2023/09/22 10:24:29;;;;;;;1.70;0.67;;;;;;;17.73;100.00;97044.75;5035198;28;20190;-73
2023/09/22 10:26:54;;;;;;;0.93;0.83;;;;;;;17.70;100.00;97037.28;5035097;28;20248;-73
2023/09/22 10:29:36;;;;;;;1.00;0.80;;;;;;;17.83;100.00;97039.22;5034798;28;20225;-72
2023/09/22 10:32:20;;;;;;;0.77;0.77;;;;;;;18.17;100.00;97042.53;5034864;28;20205;-72
2023/09/22 10:35:03;;;;;;;0.70;0.70;;;;;;;18.53;100.00;97058.97;5034685;28;20233;-73
2023/09/22 10:37:33;;;;;;;1.17;0.80;;;;;;;18.57;100.00;97060.78;5033764;28;20260;-73
2023/09/22 10:40:08;;;;;;;1.13;0.70;;;;;;;18.65;100.00;97062.00;5034357;28;20210;-72
2023/09/22 10:42:41;;;;;;;1.13;0.60;;;;;;;19.19;100.00;97052.16;5034279;28;20194;-73
2023/09/22 10:45:07;;;;;;;0.70;0.70;;;;;;;19.19;100.00;97054.84;5033973;28;20676;-73
2023/09/22 10:47:38;;;;;;;1.73;0.70;;;;;;;19.21;100.00;97051.84;5034062;28;20233;-73
2023/09/22 10:50:13;;;;;;;0.97;0.77;;;;;;;19.18;100.00;97058.63;5034143;28;20210;-73
2023/09/22 10:52:41;;;;;;;1.70;0.80;;;;;;;19.25;100.00;97051.00;5034442;28;20209;-73
2023/09/22 10:55:09;;;;;;;0.60;0.60;;;;;;;19.34;100.00;97046.53;5034222;28;20213;-74
2023/09/22 10:57:36;;;;;;;0.83;0.60;;;;;;;19.08;100.00;97050.75;5033708;28;20701;-74
2023/09/22 11:00:10;;;;;;;1.33;0.70;;;;;;;19.50;100.00;97057.81;5034381;28;20197;-73
2023/09/22 11:02:37;;;;;;;0.83;0.70;;;;;;;19.67;100.00;97048.00;5034150;28;20196;-73
2023/09/22 11:05:05;;;;;;;0.80;0.80;;;;;;;19.71;100.00;97048.19;5033117;28;20450;-72
2023/09/22 11:07:33;;;;;;;0.70;0.70;;;;;;;19.57;100.00;97052.81;5033941;28;20229;-73
2023/09/22 11:10:00;;;;;;;0.83;0.80;;;;;;;19.57;100.00;97044.72;5033853;28;20684;-73
2023/09/22 11:12:27;;;;;;;0.60;0.60;;;;;;;19.54;100.00;97038.03;5033659;28;20300;-73
2023/09/22 11:14:55;;;;;;;1.10;0.70;;;;;;;19.13;100.00;97045.25;5033878;28;20206;-73
2023/09/22 11:17:21;;;;;;;0.73;0.73;;;;;;;19.26;100.00;97057.19;5035690;28;20225;-73
2023/09/22 11:19:57;;;;;;;0.90;0.77;;;;;;;19.40;100.00;97055.28;5042699;28;20580;-73
2023/09/22 11:22:23;;;;;;;1.10;0.70;;;;;;;19.32;100.00;97050.63;5043771;28;20227;-73
2023/09/22 11:24:50;;;;;;;1.00;0.83;;;;;;;19.26;100.00;97066.06;5032305;28;20625;-73
2023/09/22 11:27:16;;;;;;;0.60;0.60;;;;;;;19.18;100.00;97064.03;5032372;28;20254;-73
2023/09/22 11:29:42;;;;;;;2.23;0.90;;;;;;;19.00;100.00;97054.13;5032333;28;20212;-73